createdAt,value
2019-01-10T03:00:17.737Z,1.30
2019-01-10T03:02:46.980Z,1.27
2019-01-10T03:05:16.247Z,1.40
2019-01-10T03:07:45.545Z,1.40
2019-01-10T03:10:16.165Z,1.30
2019-01-10T03:12:45.216Z,1.10
2019-01-10T03:15:14.383Z,0.93
2019-01-10T03:17:43.473Z,0.87
2019-01-10T03:20:15.641Z,1.13
2019-01-10T03:22:44.567Z,0.90
2019-01-10T03:25:13.602Z,1.70
2019-01-10T03:27:42.934Z,1.00
2019-01-10T03:30:13.911Z,1.30
2019-01-10T03:32:43.273Z,1.00
2019-01-10T03:35:12.465Z,0.87
2019-01-10T03:37:41.871Z,0.97
2019-01-10T03:40:14.830Z,1.13
2019-01-10T03:42:44.059Z,1.13
2019-01-10T03:45:14.729Z,0.97
2019-01-10T03:47:43.773Z,1.23
2019-01-10T03:50:13.519Z,0.87
2019-01-10T03:52:42.781Z,1.63
2019-01-10T03:55:11.951Z,1.07
2019-01-10T03:57:41.003Z,1.10
2019-01-10T04:00:14.274Z,1.10
2019-01-10T04:02:43.854Z,0.90
2019-01-10T04:05:13.113Z,0.90
2019-01-10T04:07:42.130Z,0.87
2019-01-10T04:10:11.781Z,1.00
2019-01-10T04:12:41.148Z,0.90
2019-01-10T04:15:10.912Z,1.03
2019-01-10T04:17:40.182Z,0.90
2019-01-10T04:20:10.471Z,0.70
2019-01-10T04:22:39.459Z,0.80
2019-01-10T04:25:08.900Z,0.83
2019-01-10T04:27:38.155Z,0.80
2019-01-10T04:30:09.390Z,1.10
2019-01-10T04:32:38.678Z,1.47
2019-01-10T04:35:07.933Z,1.10
2019-01-10T04:37:36.831Z,1.40
2019-01-10T04:40:07.114Z,1.03
2019-01-10T04:42:36.646Z,1.53
2019-01-10T04:45:06.790Z,1.27
2019-01-10T04:47:35.967Z,1.20
2019-01-10T04:50:05.915Z,1.10
2019-01-10T04:52:34.736Z,1.07
2019-01-10T04:55:06.381Z,1.20
2019-01-10T04:57:35.346Z,0.97
2019-01-10T05:00:07.408Z,1.30
2019-01-10T05:02:36.250Z,1.60
2019-01-10T05:05:06.026Z,1.20
2019-01-10T05:07:35.190Z,1.50
2019-01-10T05:10:04.910Z,1.40
2019-01-10T05:12:34.034Z,1.10
2019-01-10T05:15:03.224Z,1.30
2019-01-10T05:17:32.294Z,1.50
2019-01-10T05:20:01.274Z,1.60
2019-01-10T05:22:30.654Z,1.70
2019-01-10T05:24:59.837Z,2.03
2019-01-10T05:27:29.128Z,1.57
2019-01-10T05:29:58.052Z,2.20
2019-01-10T05:32:27.159Z,1.80
2019-01-10T05:34:56.406Z,1.57
2019-01-10T05:37:25.577Z,1.90
2019-01-10T05:39:54.625Z,1.70
2019-01-10T05:42:23.506Z,3.37
2019-01-10T05:44:52.384Z,1.80
2019-01-10T05:47:21.393Z,3.00
2019-01-10T05:49:50.417Z,1.70
2019-01-10T05:52:19.560Z,1.90
2019-01-10T05:54:48.623Z,1.60
2019-01-10T05:57:17.504Z,1.60
2019-01-10T05:59:46.898Z,1.73
2019-01-10T06:02:16.181Z,2.12
2019-01-10T06:04:45.407Z,1.87
2019-01-10T06:07:14.361Z,2.23
2019-01-10T06:09:43.310Z,1.40
2019-01-10T06:12:12.349Z,1.77
2019-01-10T06:14:41.388Z,1.67
2019-01-10T06:17:10.331Z,2.17
2019-01-10T06:19:39.487Z,2.00
2019-01-10T06:22:08.423Z,2.33
2019-01-10T06:24:38.480Z,2.00
2019-01-10T06:27:07.490Z,2.10
2019-01-10T06:29:36.584Z,1.67
2019-01-10T06:32:05.671Z,1.90
2019-01-10T06:34:35.156Z,1.82
2019-01-10T06:37:04.348Z,1.60
2019-01-10T06:39:33.530Z,2.13
2019-01-10T06:42:02.644Z,1.80
2019-01-10T06:44:31.726Z,1.60
2019-01-10T06:47:00.728Z,2.07
2019-01-10T06:49:29.616Z,1.63
2019-01-10T06:52:04.787Z,1.50
2019-01-10T06:54:41.245Z,1.40
2019-01-10T06:57:10.449Z,1.90
2019-01-10T06:59:39.627Z,2.10
2019-01-10T07:02:08.789Z,2.47
2019-01-10T07:04:37.849Z,2.00
2019-01-10T07:07:06.731Z,1.97
2019-01-10T07:09:35.734Z,1.73
2019-01-10T07:12:04.854Z,1.90
2019-01-10T07:14:33.882Z,2.00
2019-01-10T07:17:03.079Z,1.50
2019-01-10T07:19:47.897Z,1.37
2019-01-10T07:22:17.722Z,2.00
2019-01-10T07:24:54.215Z,1.73
2019-01-10T07:27:23.617Z,1.70
2019-01-10T07:29:56.652Z,1.70
2019-01-10T07:32:25.717Z,1.83
2019-01-10T07:35:02.172Z,2.03
2019-01-10T07:37:31.209Z,1.57
2019-01-10T07:40:00.592Z,2.77
2019-01-10T07:42:35.923Z,2.30
2019-01-10T07:45:12.473Z,1.97
2019-01-10T07:47:48.165Z,2.17
2019-01-10T07:50:18.507Z,2.40
2019-01-10T07:52:48.121Z,1.87
2019-01-10T07:55:17.267Z,1.80
2019-01-10T07:57:46.221Z,2.17
2019-01-10T08:00:16.243Z,1.55
2019-01-10T08:02:45.521Z,2.00
2019-01-10T08:05:14.745Z,2.23
2019-01-10T08:07:44.108Z,1.80
2019-01-10T08:10:14.633Z,1.63
2019-01-10T08:12:43.941Z,1.57
2019-01-10T08:15:16.016Z,1.17
2019-01-10T08:17:45.067Z,1.70
2019-01-10T08:20:14.457Z,2.10
2019-01-10T08:22:43.699Z,1.33
2019-01-10T08:25:12.898Z,1.83
2019-01-10T08:27:42.132Z,1.93
2019-01-10T08:30:19.643Z,1.40
2019-01-10T08:32:48.823Z,1.40
2019-01-10T08:35:20.327Z,1.70
2019-01-10T08:37:49.295Z,1.00
2019-01-10T08:40:18.370Z,1.43
2019-01-10T08:42:47.381Z,1.40
2019-01-10T08:45:21.851Z,1.43
2019-01-10T08:47:47.143Z,1.10
2019-01-10T08:50:18.546Z,1.37
2019-01-10T08:52:47.644Z,1.50
2019-01-10T08:55:16.848Z,1.70
2019-01-10T08:57:45.941Z,1.20
2019-01-10T09:00:16.892Z,1.47
2019-01-10T09:02:45.907Z,2.53
2019-01-10T09:05:14.819Z,1.30
2019-01-10T09:07:43.790Z,1.57
2019-01-10T09:10:21.422Z,1.33
2019-01-10T09:12:50.399Z,1.20
2019-01-10T09:15:25.376Z,1.30
2019-01-10T09:17:50.124Z,1.50
2019-01-10T09:20:18.974Z,1.20
2019-01-10T09:22:47.888Z,1.53
2019-01-10T09:25:17.862Z,1.47
2019-01-10T09:27:46.850Z,1.40
2019-01-10T09:30:17.744Z,1.63
2019-01-10T09:32:46.848Z,1.40
2019-01-10T09:35:15.760Z,1.60
2019-01-10T09:37:44.736Z,0.87
2019-01-10T09:40:15.640Z,1.20
2019-01-10T09:42:44.732Z,1.07
2019-01-10T09:45:15.744Z,1.17
2019-01-10T09:47:44.723Z,1.40
2019-01-10T09:50:15.640Z,0.97
2019-01-10T09:52:44.733Z,1.23
2019-01-10T09:55:13.819Z,0.93
2019-01-10T09:57:42.687Z,1.23
2019-01-10T10:00:15.426Z,1.13
2019-01-10T10:02:44.364Z,1.00
2019-01-10T10:05:13.236Z,1.00
2019-01-10T10:07:42.250Z,0.80
2019-01-10T10:10:13.322Z,1.13
2019-01-10T10:12:42.261Z,1.10
2019-01-10T10:15:11.566Z,0.90
2019-01-10T10:17:40.387Z,0.80
2019-01-10T10:20:11.530Z,0.90
2019-01-10T10:22:40.510Z,0.70
2019-01-10T10:25:09.523Z,0.90
2019-01-10T10:27:38.444Z,1.10
2019-01-10T10:30:10.266Z,0.87
2019-01-10T10:32:39.289Z,1.07
2019-01-10T10:35:08.318Z,0.70
2019-01-10T10:37:37.350Z,0.70
2019-01-10T10:40:08.658Z,0.77
2019-01-10T10:42:37.733Z,1.03
2019-01-10T10:45:07.045Z,1.23
2019-01-10T10:47:35.991Z,1.03
2019-01-10T10:50:05.773Z,0.87
2019-01-10T10:52:34.642Z,0.87
2019-01-10T10:55:04.421Z,1.10
2019-01-10T10:57:33.611Z,0.70
2019-01-10T11:00:02.545Z,1.33
2019-01-10T11:02:31.533Z,1.30
2019-01-10T11:05:03.569Z,0.80
2019-01-10T11:07:32.444Z,0.70
2019-01-10T11:10:01.415Z,0.60
2019-01-10T11:12:30.350Z,0.80
2019-01-10T11:14:59.339Z,0.90
2019-01-10T11:17:28.729Z,1.27
2019-01-10T11:19:57.555Z,1.00
2019-01-10T11:22:26.961Z,1.00
2019-01-10T11:24:55.955Z,0.70
2019-01-10T11:27:24.876Z,0.90
2019-01-10T11:29:53.743Z,1.17
2019-01-10T11:32:22.867Z,0.70
2019-01-10T11:34:51.685Z,0.80
2019-01-10T11:37:20.829Z,1.00
2019-01-10T11:39:49.666Z,0.90
2019-01-10T11:42:18.531Z,0.70
2019-01-10T11:44:47.428Z,0.97
2019-01-10T11:47:16.289Z,0.90
2019-01-10T11:49:45.203Z,1.10
2019-01-10T11:52:14.096Z,0.83
2019-01-10T11:54:43.068Z,1.03
2019-01-10T11:57:11.982Z,0.80
2019-01-10T11:59:41.053Z,0.77
2019-01-10T12:02:10.069Z,0.70
2019-01-10T12:04:38.927Z,0.87
2019-01-10T12:07:07.824Z,0.80
2019-01-10T12:09:36.831Z,0.87
2019-01-10T12:12:05.878Z,0.67
2019-01-10T12:14:34.797Z,0.77
2019-01-10T12:17:03.703Z,0.70
2019-01-10T12:19:32.784Z,0.70
2019-01-10T12:22:01.786Z,0.60
2019-01-10T12:24:30.735Z,0.70
2019-01-10T12:26:59.655Z,0.70
2019-01-10T12:29:36.098Z,0.63
2019-01-10T12:32:00.233Z,0.80
2019-01-10T12:34:29.312Z,0.73
2019-01-10T12:37:00.529Z,1.27
2019-01-10T12:39:28.850Z,0.60
2019-01-10T12:41:57.755Z,0.60
2019-01-10T12:44:26.621Z,0.60
2019-01-10T12:46:55.492Z,0.63
2019-01-10T12:49:24.420Z,0.60
2019-01-10T12:51:53.295Z,0.60
2019-01-10T12:54:22.641Z,0.80
2019-01-10T12:56:51.616Z,0.70
2019-01-10T12:59:20.433Z,0.60
2019-01-10T13:01:49.557Z,0.60
2019-01-10T13:04:18.750Z,0.40
2019-01-10T13:06:47.672Z,0.70
2019-01-10T13:09:16.592Z,0.70
2019-01-10T13:11:45.486Z,0.70
2019-01-10T13:14:14.546Z,0.70
2019-01-10T13:16:47.038Z,0.50
2019-01-10T13:19:14.478Z,0.60
2019-01-10T13:21:43.577Z,0.70
2019-01-10T13:24:12.532Z,0.63
2019-01-10T13:26:41.644Z,0.60
2019-01-10T13:29:10.738Z,0.47
2019-01-10T13:31:39.854Z,0.60
2019-01-10T13:34:08.983Z,0.90
2019-01-10T13:36:37.860Z,0.70
2019-01-10T13:39:08.998Z,0.60
2019-01-10T13:41:37.942Z,0.77
2019-01-10T13:44:06.846Z,0.50
2019-01-10T13:46:35.776Z,0.60
2019-01-10T13:49:04.712Z,0.60
2019-01-10T13:51:33.752Z,0.50
2019-01-10T13:54:03.106Z,0.53
2019-01-10T13:56:32.110Z,0.60
2019-01-10T13:59:00.990Z,0.70
2019-01-10T14:01:29.935Z,0.70
2019-01-10T14:04:03.233Z,0.50
2019-01-10T14:06:32.400Z,0.40
2019-01-10T14:09:02.592Z,0.97
2019-01-10T14:11:31.757Z,0.60
2019-01-10T14:14:01.671Z,0.60
2019-01-10T14:16:31.380Z,0.70
2019-01-10T14:19:06.472Z,0.70
2019-01-10T14:21:35.875Z,0.60
2019-01-10T14:24:04.970Z,0.50
2019-01-10T14:26:33.999Z,0.60
2019-01-10T14:29:03.139Z,0.50
2019-01-10T14:31:32.122Z,0.50
2019-01-10T14:34:01.056Z,0.40
2019-01-10T14:36:30.025Z,0.50
2019-01-10T14:38:58.975Z,0.60
2019-01-10T14:41:27.887Z,0.50
2019-01-10T14:43:56.921Z,0.50
2019-01-10T14:46:25.873Z,0.50
2019-01-10T14:48:54.888Z,0.60
2019-01-10T14:51:23.794Z,0.50
2019-01-10T14:53:52.797Z,0.50
2019-01-10T14:56:22.538Z,0.60
2019-01-10T14:58:51.497Z,0.77
2019-01-10T15:01:45.415Z,0.80
2019-01-10T15:04:15.551Z,0.70
2019-01-10T15:06:58.745Z,0.50
2019-01-10T15:09:31.203Z,0.60
2019-01-10T15:12:05.193Z,0.53
2019-01-10T15:14:34.632Z,0.50
2019-01-10T15:17:04.607Z,0.60
2019-01-10T15:19:34.460Z,0.50
2019-01-10T15:22:07.219Z,0.60
2019-01-10T15:24:36.680Z,0.50
2019-01-10T15:27:06.131Z,0.50
2019-01-10T15:29:37.690Z,0.70
2019-01-10T15:32:07.373Z,0.57
2019-01-10T15:34:37.090Z,0.73
2019-01-10T15:37:06.635Z,0.60
2019-01-10T15:39:36.661Z,0.60
2019-01-10T15:42:06.430Z,0.87
2019-01-10T15:44:36.162Z,3.80
2019-01-10T15:47:19.647Z,0.80
2019-01-10T15:49:44.593Z,0.77
2019-01-10T15:52:23.951Z,1.00
2019-01-10T15:54:56.622Z,0.60
2019-01-10T15:57:27.649Z,0.83
2019-01-10T16:00:00.689Z,0.70
2019-01-10T16:02:42.163Z,0.80
2019-01-10T16:05:11.713Z,0.80
2019-01-10T16:07:52.955Z,0.60
2019-01-10T16:10:24.327Z,0.70
2019-01-10T16:12:55.608Z,0.60
2019-01-10T16:15:26.283Z,0.90
2019-01-10T16:17:59.834Z,0.65
2019-01-10T16:20:30.491Z,1.03
2019-01-10T16:23:02.333Z,0.60
2019-01-10T16:25:41.992Z,0.67
2019-01-10T16:28:11.357Z,0.60
2019-01-10T16:30:43.058Z,0.50
2019-01-10T16:33:12.957Z,0.50
2019-01-10T16:35:51.183Z,0.60
2019-01-10T16:38:34.610Z,0.50
2019-01-10T16:41:04.627Z,0.50
2019-01-10T16:43:41.032Z,0.80
2019-01-10T16:46:21.243Z,0.90
2019-01-10T16:48:51.353Z,0.67
2019-01-10T16:51:29.785Z,0.90
2019-01-10T16:54:01.618Z,0.90
2019-01-10T16:56:38.111Z,0.80
2019-01-10T16:59:16.491Z,0.77
2019-01-10T17:01:48.101Z,0.87
2019-01-10T17:04:31.616Z,0.80
2019-01-10T17:07:04.944Z,0.90
2019-01-10T17:09:46.646Z,0.70
2019-01-10T17:12:23.306Z,1.20
2019-01-10T17:14:56.974Z,0.97
2019-01-10T17:17:37.671Z,0.97
2019-01-10T17:22:55.596Z,1.10
2019-01-10T17:25:34.129Z,0.87
2019-01-10T17:28:14.284Z,1.23
2019-01-10T17:30:52.090Z,0.80
2019-01-10T17:33:24.256Z,1.87
2019-01-10T17:35:54.400Z,1.03
2019-01-10T17:38:57.382Z,1.20
2019-01-10T17:41:34.770Z,1.20
2019-01-10T17:44:10.938Z,0.83
2019-01-10T17:46:42.278Z,1.27
2019-01-10T17:49:15.664Z,1.00
2019-01-10T17:51:48.056Z,1.10
2019-01-10T17:54:21.086Z,1.13
2019-01-10T17:57:21.122Z,1.37
2019-01-10T18:00:00.131Z,1.27
2019-01-10T18:02:34.097Z,1.23
2019-01-10T18:05:10.827Z,1.60
2019-01-10T18:07:59.326Z,1.60
2019-01-10T18:10:41.127Z,1.90
2019-01-10T18:13:11.097Z,2.00
2019-01-10T18:15:45.630Z,2.70
2019-01-10T18:18:22.562Z,2.37
2019-01-10T18:20:55.184Z,2.05
2019-01-10T18:23:32.445Z,2.10
2019-01-10T18:26:02.662Z,1.87
2019-01-10T18:28:40.777Z,2.60
2019-01-10T18:31:15.326Z,2.02
2019-01-10T18:33:46.968Z,2.07
2019-01-10T18:36:22.736Z,2.60
2019-01-10T18:38:52.394Z,2.30
2019-01-10T18:41:39.367Z,1.80
2019-01-10T18:44:09.493Z,3.87
2019-01-10T18:46:54.922Z,2.63
2019-01-10T18:49:30.134Z,3.30
2019-01-10T18:52:10.173Z,1.73
2019-01-10T18:54:50.357Z,2.57
2019-01-10T18:57:38.217Z,2.40
2019-01-10T19:01:33.115Z,2.00
2019-01-10T19:04:12.657Z,2.13
2019-01-10T19:07:47.016Z,2.30
2019-01-10T19:15:20.739Z,1.90
2019-01-10T19:18:17.795Z,2.27
2019-01-10T19:21:14.275Z,2.23
2019-01-10T19:27:52.349Z,2.43
2019-01-10T19:30:26.059Z,2.10
2019-01-10T19:33:21.471Z,2.23
2019-01-10T19:35:46.685Z,3.77
2019-01-10T19:38:18.414Z,1.90
2019-01-10T19:41:00.941Z,3.00
2019-01-10T19:44:45.807Z,2.40
2019-01-10T19:47:32.097Z,1.80
2019-01-10T19:50:47.443Z,2.25
2019-01-10T19:53:17.096Z,2.15
2019-01-10T19:55:47.067Z,2.10
2019-01-10T19:58:18.682Z,1.93
2019-01-10T20:01:11.455Z,2.20
2019-01-10T20:04:58.241Z,2.27
2019-01-10T20:15:47.167Z,1.65
2019-01-10T20:18:21.606Z,1.72
2019-01-10T20:21:05.882Z,2.00
2019-01-10T20:24:20.581Z,1.80
2019-01-10T20:30:23.712Z,1.90
2019-01-10T20:32:59.630Z,1.80
2019-01-10T20:35:39.896Z,2.27
2019-01-10T20:38:52.006Z,1.60
2019-01-10T20:41:21.375Z,1.82
2019-01-10T20:43:50.840Z,1.90
2019-01-10T20:46:20.045Z,1.65
2019-01-10T20:48:49.433Z,1.63
2019-01-10T20:51:18.639Z,1.63
2019-01-10T20:53:48.018Z,2.07
2019-01-10T20:56:17.314Z,1.80
2019-01-10T20:58:46.712Z,1.50
2019-01-10T21:01:18.198Z,1.73
2019-01-10T21:03:47.520Z,1.60
2019-01-10T21:06:16.864Z,2.13
2019-01-10T21:08:46.096Z,1.67
2019-01-10T21:11:15.542Z,1.50
2019-01-10T21:13:44.918Z,1.37
2019-01-10T21:16:14.193Z,1.52
2019-01-10T21:18:43.312Z,1.70
2019-01-10T21:21:12.756Z,1.80
2019-01-10T21:23:41.982Z,1.87
2019-01-10T21:26:12.558Z,1.80
2019-01-10T21:28:41.646Z,1.85
2019-01-10T21:31:22.268Z,1.72
2019-01-10T21:33:51.432Z,1.50
2019-01-10T21:36:20.658Z,1.52
2019-01-10T21:38:49.903Z,1.98
2019-01-10T21:41:19.441Z,2.10
2019-01-10T21:43:48.812Z,2.08
2019-01-10T21:46:39.804Z,1.63
2019-01-10T21:49:08.839Z,1.95
2019-01-10T21:51:38.160Z,1.97
2019-01-10T21:54:09.187Z,2.93
2019-01-10T21:56:38.414Z,2.50
2019-01-10T21:59:07.673Z,2.00
2019-01-10T22:01:36.830Z,1.80
2019-01-10T22:04:06.087Z,1.98
2019-01-10T22:06:35.320Z,1.60
2019-01-10T22:09:07.034Z,1.57
2019-01-10T22:11:36.120Z,2.10
2019-01-10T22:14:05.571Z,2.30
2019-01-10T22:16:34.823Z,2.70
2019-01-10T22:19:04.130Z,2.35
2019-01-10T22:21:33.325Z,2.08
2019-01-10T22:24:02.516Z,2.40
2019-01-10T22:26:31.756Z,2.07
2019-01-10T22:29:00.858Z,2.30
2019-01-10T22:31:30.054Z,1.90
2019-01-10T22:33:59.101Z,2.27
2019-01-10T22:36:28.334Z,2.00
2019-01-10T22:38:57.408Z,2.17
2019-01-10T22:41:26.599Z,2.37
2019-01-10T22:43:55.720Z,2.27
2019-01-10T22:46:24.792Z,2.03
2019-01-10T22:48:53.745Z,2.33
2019-01-10T22:51:22.718Z,2.20
2019-01-10T22:53:51.903Z,1.93
2019-01-10T22:56:21.043Z,2.30
2019-01-10T22:58:50.226Z,1.70
2019-01-10T23:01:38.776Z,2.25
2019-01-10T23:04:08.806Z,2.00
2019-01-10T23:06:37.964Z,2.53
2019-01-10T23:09:09.791Z,2.00
2019-01-10T23:11:39.299Z,2.40
2019-01-10T23:14:08.621Z,2.70
2019-01-10T23:16:38.036Z,2.30
2019-01-10T23:19:07.615Z,2.23
2019-01-10T23:21:38.521Z,2.30
2019-01-10T23:24:09.637Z,1.98
2019-01-10T23:26:38.753Z,2.70
2019-01-10T23:29:08.779Z,2.40
2019-01-10T23:31:37.800Z,2.40
2019-01-10T23:34:11.515Z,2.37
2019-01-10T23:36:40.718Z,2.80
2019-01-10T23:39:15.045Z,2.47
2019-01-10T23:41:44.142Z,2.70
2019-01-10T23:44:13.329Z,3.05
2019-01-10T23:46:42.479Z,2.77
2019-01-10T23:49:11.657Z,3.12
2019-01-10T23:51:40.973Z,3.17
2019-01-10T23:54:10.299Z,3.10
2019-01-10T23:56:39.505Z,2.67
2019-01-10T23:59:08.795Z,3.50
